createdAt,value
2019-05-16T00:01:01.220Z,7.60
2019-05-16T00:03:31.484Z,7.50
2019-05-16T00:06:01.753Z,7.50
2019-05-16T00:08:32.028Z,7.50
2019-05-16T00:11:02.267Z,7.40
2019-05-16T00:13:32.516Z,7.40
2019-05-16T00:16:02.769Z,7.40
2019-05-16T00:18:33.038Z,7.40
2019-05-16T00:21:03.349Z,7.30
2019-05-16T00:23:33.596Z,7.30
2019-05-16T00:26:03.852Z,7.20
2019-05-16T00:28:34.163Z,7.20
2019-05-16T00:31:04.409Z,7.20
2019-05-16T00:33:34.695Z,7.10
2019-05-16T00:36:06.114Z,7.10
2019-05-16T00:38:38.005Z,7.10
2019-05-16T00:41:08.686Z,7.00
2019-05-16T00:43:38.979Z,7.00
2019-05-16T00:46:09.584Z,6.90
2019-05-16T00:48:39.832Z,7.00
2019-05-16T00:51:10.078Z,6.90
2019-05-16T00:53:40.599Z,6.90
2019-05-16T00:56:10.911Z,6.80
2019-05-16T00:58:41.193Z,6.80
2019-05-16T01:01:11.465Z,6.80
2019-05-16T01:03:41.736Z,6.90
2019-05-16T01:06:18.564Z,6.80
2019-05-16T01:08:43.956Z,6.90
2019-05-16T01:11:14.497Z,6.80
2019-05-16T01:13:44.740Z,6.80
2019-05-16T01:16:15.058Z,6.80
2019-05-16T01:18:45.405Z,6.90
2019-05-16T01:21:18.367Z,6.90
2019-05-16T01:23:48.287Z,6.90
2019-05-16T01:26:18.830Z,6.90
2019-05-16T01:28:49.065Z,6.80
2019-05-16T01:31:19.393Z,6.80
2019-05-16T01:33:49.756Z,6.80
2019-05-16T01:36:33.346Z,6.80
2019-05-16T01:38:52.316Z,6.90
2019-05-16T01:41:22.593Z,6.90
2019-05-16T01:43:52.835Z,6.90
2019-05-16T01:46:23.081Z,6.90
2019-05-16T01:48:53.326Z,6.90
2019-05-16T01:51:23.587Z,6.90
2019-05-16T01:53:53.871Z,7.00
2019-05-16T01:56:24.120Z,7.00
2019-05-16T01:58:54.441Z,7.00
2019-05-16T02:01:24.672Z,7.00
2019-05-16T02:03:54.943Z,7.10
2019-05-16T02:06:25.184Z,7.10
2019-05-16T02:08:57.845Z,7.10
2019-05-16T02:11:28.509Z,7.10
2019-05-16T02:13:59.042Z,7.10
2019-05-16T02:16:29.293Z,7.10
2019-05-16T02:18:59.802Z,7.10
2019-05-16T02:21:30.084Z,7.10
2019-05-16T02:24:01.991Z,7.20
2019-05-16T02:26:32.432Z,7.10
2019-05-16T02:29:02.729Z,7.20
2019-05-16T02:31:33.011Z,7.20
2019-05-16T02:34:04.871Z,7.20
2019-05-16T02:36:35.284Z,7.20
2019-05-16T02:39:11.162Z,7.20
2019-05-16T02:41:45.681Z,7.20
2019-05-16T02:44:12.770Z,7.30
2019-05-16T02:46:43.018Z,7.30
2019-05-16T02:49:13.286Z,7.30
2019-05-16T02:51:44.034Z,7.20
2019-05-16T02:54:14.269Z,7.20
2019-05-16T02:56:44.553Z,7.20
2019-05-16T02:59:16.005Z,7.30
2019-05-16T03:01:46.274Z,7.30
2019-05-16T03:04:17.123Z,7.30
2019-05-16T03:06:47.389Z,7.30
2019-05-16T03:09:17.669Z,7.30
2019-05-16T03:11:50.946Z,7.30
2019-05-16T03:14:21.404Z,7.40
2019-05-16T03:16:51.998Z,7.30
2019-05-16T03:19:22.242Z,7.40
2019-05-16T03:21:52.531Z,7.40
2019-05-16T03:24:24.518Z,7.40
2019-05-16T03:26:54.802Z,7.40
2019-05-16T03:29:25.074Z,7.50
2019-05-16T03:31:55.325Z,7.50
2019-05-16T03:34:26.625Z,7.50
2019-05-16T03:36:57.067Z,7.50
2019-05-16T03:39:27.413Z,7.50
2019-05-16T03:41:57.660Z,7.60
2019-05-16T03:44:31.480Z,7.60
2019-05-16T03:47:01.030Z,7.60
2019-05-16T03:49:31.534Z,7.60
2019-05-16T03:52:01.877Z,7.60
2019-05-16T03:54:32.107Z,7.60
2019-05-16T03:57:02.403Z,7.70
2019-05-16T03:59:33.406Z,7.70
2019-05-16T04:02:03.687Z,7.70
2019-05-16T04:04:33.969Z,7.70
2019-05-16T04:07:04.254Z,7.70
2019-05-16T04:09:34.545Z,7.70
2019-05-16T04:12:04.786Z,7.70
2019-05-16T04:14:35.285Z,7.70
2019-05-16T04:17:05.536Z,7.70
2019-05-16T04:19:35.791Z,7.70
2019-05-16T04:22:10.502Z,7.80
2019-05-16T04:24:41.834Z,7.80
2019-05-16T04:27:12.381Z,7.70
2019-05-16T04:29:42.648Z,7.70
2019-05-16T04:32:12.925Z,7.70
2019-05-16T04:34:43.216Z,7.80
2019-05-16T04:37:14.489Z,7.80
2019-05-16T04:39:44.747Z,7.80
2019-05-16T04:42:14.976Z,7.80
2019-05-16T04:44:46.887Z,7.80
2019-05-16T04:47:17.127Z,7.80
2019-05-16T04:49:47.407Z,7.80
2019-05-16T04:52:17.684Z,7.80
2019-05-16T04:54:51.035Z,7.80
2019-05-16T04:57:20.922Z,7.80
2019-05-16T04:59:51.322Z,7.80
2019-05-16T05:02:21.630Z,7.80
2019-05-16T05:04:52.185Z,7.90
2019-05-16T05:07:22.446Z,7.90
2019-05-16T05:09:52.682Z,7.90
2019-05-16T05:12:22.960Z,7.90
2019-05-16T05:14:53.468Z,7.90
2019-05-16T05:17:23.714Z,7.90
2019-05-16T05:19:53.990Z,8.00
2019-05-16T05:22:24.274Z,8.00
2019-05-16T05:24:54.560Z,8.00
2019-05-16T05:27:24.843Z,8.00
2019-05-16T05:29:55.577Z,8.00
2019-05-16T05:32:25.866Z,8.00
2019-05-16T05:34:56.110Z,8.00
2019-05-16T05:37:26.356Z,8.00
2019-05-16T05:39:56.642Z,8.00
2019-05-16T05:42:26.902Z,8.00
2019-05-16T05:44:57.169Z,8.00
2019-05-16T05:47:27.410Z,8.00
2019-05-16T05:50:00.457Z,8.10
2019-05-16T05:52:30.366Z,8.10
2019-05-16T05:55:00.930Z,8.10
2019-05-16T05:57:31.108Z,8.10
2019-05-16T06:00:01.360Z,8.20
2019-05-16T06:02:31.624Z,8.20
2019-05-16T06:05:01.881Z,8.20
2019-05-16T06:07:32.124Z,8.20
2019-05-16T06:10:02.414Z,8.20
2019-05-16T06:12:32.650Z,8.20
2019-05-16T06:15:08.095Z,8.20
2019-05-16T06:17:35.263Z,8.20
2019-05-16T06:20:06.185Z,8.30
2019-05-16T06:22:36.450Z,8.30
2019-05-16T06:25:06.955Z,8.30
2019-05-16T06:27:37.280Z,8.30
2019-05-16T06:30:11.447Z,8.30
2019-05-16T06:32:40.843Z,8.30
2019-05-16T06:35:11.117Z,8.30
2019-05-16T06:37:41.391Z,8.40
2019-05-16T06:40:11.678Z,8.40
2019-05-16T06:42:41.963Z,8.40
2019-05-16T06:45:12.231Z,8.40
2019-05-16T06:47:42.575Z,8.40
2019-05-16T06:50:13.104Z,8.40
2019-05-16T06:52:45.790Z,8.40
2019-05-16T06:55:15.359Z,8.40
2019-05-16T06:57:45.598Z,8.40
2019-05-16T07:00:15.882Z,8.40
2019-05-16T07:02:46.154Z,8.40
2019-05-16T07:05:16.402Z,8.50
2019-05-16T07:07:46.645Z,8.50
2019-05-16T07:10:16.927Z,8.50
2019-05-16T07:12:47.163Z,8.50
2019-05-16T07:15:17.405Z,8.50
2019-05-16T07:17:47.656Z,8.50
2019-05-16T07:20:20.720Z,8.50
2019-05-16T07:22:50.470Z,8.50
2019-05-16T07:25:21.045Z,8.50
2019-05-16T07:27:51.354Z,8.50
2019-05-16T07:30:21.605Z,8.60
2019-05-16T07:32:51.894Z,8.60
2019-05-16T07:35:22.134Z,8.60
2019-05-16T07:37:52.437Z,8.60
2019-05-16T07:40:26.490Z,8.70
2019-05-16T07:42:54.674Z,8.80
2019-05-16T07:45:24.929Z,8.90
2019-05-16T07:47:55.233Z,8.90
2019-05-16T07:50:25.488Z,9.00
2019-05-16T07:52:55.776Z,9.00
2019-05-16T07:55:26.057Z,8.90
2019-05-16T07:57:56.783Z,8.80
2019-05-16T08:00:45.914Z,8.80
2019-05-16T08:02:59.989Z,8.90
2019-05-16T08:05:33.366Z,8.90
2019-05-16T08:08:02.378Z,8.90
2019-05-16T08:10:40.613Z,8.90
2019-05-16T08:13:04.676Z,8.90
2019-05-16T08:15:35.086Z,8.90
2019-05-16T08:18:05.344Z,8.90
2019-05-16T08:20:35.699Z,9.00
2019-05-16T08:23:06.011Z,9.00
2019-05-16T08:25:37.506Z,9.10
2019-05-16T08:28:07.832Z,9.00
2019-05-16T08:30:41.269Z,9.10
2019-05-16T08:35:42.758Z,9.00
2019-05-16T08:38:13.637Z,9.10
2019-05-16T08:43:15.945Z,9.20
2019-05-16T08:45:46.225Z,9.20
2019-05-16T08:48:16.500Z,9.20
2019-05-16T08:50:11.346Z,9.10
2019-05-16T08:50:53.976Z,9.30
2019-05-16T08:53:21.600Z,9.40
2019-05-16T08:55:51.018Z,9.50
2019-05-16T08:58:22.408Z,9.50
2019-05-16T09:00:55.599Z,9.40
2019-05-16T09:03:25.804Z,9.50
2019-05-16T09:05:56.048Z,9.50
2019-05-16T09:08:26.301Z,9.60
2019-05-16T09:10:20.961Z,9.00
2019-05-16T09:11:02.061Z,9.60
2019-05-16T09:13:28.627Z,9.60
2019-05-16T09:15:58.899Z,9.60
2019-05-16T09:18:29.269Z,9.50
2019-05-16T09:20:59.497Z,9.50
2019-05-16T09:23:29.736Z,9.50
2019-05-16T09:25:59.999Z,9.40
2019-05-16T09:28:30.396Z,9.40
2019-05-16T09:31:00.705Z,9.40
2019-05-16T09:33:30.974Z,9.40
2019-05-16T09:36:01.253Z,9.40
2019-05-16T09:38:31.523Z,9.40
2019-05-16T09:41:02.098Z,9.50
2019-05-16T09:43:32.539Z,9.50
2019-05-16T09:46:04.067Z,9.70
2019-05-16T09:48:37.718Z,9.80
2019-05-16T09:51:06.795Z,9.90
2019-05-16T09:53:37.127Z,9.90
2019-05-16T09:56:07.551Z,9.90
2019-05-16T09:58:37.800Z,9.80
2019-05-16T10:01:08.082Z,9.70
2019-05-16T10:03:38.356Z,9.70
2019-05-16T10:06:08.892Z,9.60
2019-05-16T10:08:39.394Z,9.60
2019-05-16T10:11:09.937Z,9.70
2019-05-16T10:13:40.284Z,9.70
2019-05-16T10:16:10.537Z,9.70
2019-05-16T10:18:40.796Z,9.70
2019-05-16T10:21:11.039Z,9.70
2019-05-16T10:23:41.298Z,9.80
2019-05-16T10:26:11.584Z,9.90
2019-05-16T10:28:41.869Z,9.90
2019-05-16T10:31:12.169Z,9.90
2019-05-16T10:33:42.436Z,10.00
2019-05-16T10:36:12.721Z,10.00
2019-05-16T10:38:43.016Z,10.20
2019-05-16T10:41:13.334Z,10.20
2019-05-16T10:43:43.696Z,10.20
2019-05-16T10:46:13.957Z,10.30
2019-05-16T10:48:46.775Z,10.20
2019-05-16T10:51:16.956Z,10.30
2019-05-16T10:54:11.815Z,10.20
2019-05-16T10:56:19.336Z,10.20
2019-05-16T10:59:21.551Z,10.30
2019-05-16T11:01:27.475Z,10.40
2019-05-16T11:03:53.623Z,10.50
2019-05-16T11:06:28.682Z,10.70
2019-05-16T11:08:57.159Z,10.90
2019-05-16T11:11:27.640Z,11.00
2019-05-16T11:13:57.886Z,11.10
2019-05-16T11:16:28.215Z,11.20
2019-05-16T11:19:13.718Z,11.30
2019-05-16T11:21:30.409Z,11.40
2019-05-16T11:24:00.679Z,11.40
2019-05-16T11:26:31.011Z,11.60
2019-05-16T11:29:01.327Z,11.40
2019-05-16T11:31:31.654Z,11.30
2019-05-16T11:34:01.947Z,11.30
2019-05-16T11:36:32.215Z,11.20
2019-05-16T11:39:02.548Z,11.20
2019-05-16T11:41:32.851Z,11.40
2019-05-16T11:44:03.718Z,11.40
2019-05-16T11:46:33.964Z,11.50
2019-05-16T11:49:04.256Z,11.70
2019-05-16T11:51:34.510Z,12.00
2019-05-16T11:54:06.790Z,12.00
2019-05-16T11:56:37.093Z,12.00
2019-05-16T11:59:07.927Z,12.10
2019-05-16T12:01:38.297Z,12.50
2019-05-16T12:04:08.591Z,12.60
2019-05-16T12:06:38.839Z,12.60
2019-05-16T12:09:09.270Z,12.60
2019-05-16T12:11:39.561Z,12.80
2019-05-16T12:14:09.830Z,12.80
2019-05-16T12:16:40.105Z,13.00
2019-05-16T12:19:10.514Z,12.90
2019-05-16T12:21:40.821Z,12.90
2019-05-16T12:24:11.140Z,12.90
2019-05-16T12:26:41.402Z,12.90
2019-05-16T12:29:11.689Z,12.80
2019-05-16T12:31:55.314Z,12.80
2019-05-16T12:34:13.949Z,12.80
2019-05-16T12:36:44.263Z,12.80
2019-05-16T12:39:17.074Z,12.40
2019-05-16T12:41:49.262Z,12.40
2019-05-16T12:44:18.531Z,12.40
2019-05-16T12:46:48.861Z,12.20
2019-05-16T12:49:19.159Z,12.30
2019-05-16T12:51:49.446Z,12.40
2019-05-16T12:54:19.709Z,12.40
2019-05-16T12:56:50.077Z,12.60
2019-05-16T12:59:21.641Z,12.80
2019-05-16T13:01:52.138Z,12.90
2019-05-16T13:04:22.420Z,12.90
2019-05-16T13:06:52.692Z,12.80
2019-05-16T13:09:23.002Z,12.90
2019-05-16T13:11:53.272Z,13.00
2019-05-16T13:14:24.338Z,12.90
2019-05-16T13:16:54.651Z,13.00
2019-05-16T13:19:32.010Z,13.20
2019-05-16T13:21:57.764Z,13.40
2019-05-16T13:24:28.168Z,13.30
2019-05-16T13:26:58.438Z,13.30
2019-05-16T13:29:28.695Z,13.40
2019-05-16T13:31:59.213Z,13.40
2019-05-16T13:34:29.471Z,13.50
2019-05-16T13:36:59.761Z,13.50
2019-05-16T13:39:30.052Z,13.50
2019-05-16T13:42:00.406Z,13.40
2019-05-16T13:44:30.665Z,13.10
2019-05-16T13:47:00.941Z,12.90
2019-05-16T13:49:31.278Z,13.10
2019-05-16T13:52:01.580Z,13.50
2019-05-16T13:54:31.853Z,13.90
2019-05-16T13:57:02.144Z,14.10
2019-05-16T13:59:32.418Z,14.10
2019-05-16T14:02:02.723Z,13.90
2019-05-16T14:04:33.042Z,14.00
2019-05-16T14:07:03.611Z,14.20
2019-05-16T14:09:33.963Z,14.40
2019-05-16T14:12:06.611Z,14.70
2019-05-16T14:14:41.904Z,14.70
2019-05-16T14:17:14.158Z,14.50
2019-05-16T14:19:40.676Z,14.40
2019-05-16T14:22:10.945Z,14.10
2019-05-16T14:24:41.189Z,13.90
2019-05-16T14:27:11.495Z,13.80
2019-05-16T14:29:41.763Z,13.70
2019-05-16T14:32:12.063Z,13.60
2019-05-16T14:34:46.338Z,13.50
2019-05-16T14:37:14.324Z,13.70
2019-05-16T14:39:48.494Z,13.80
2019-05-16T14:42:17.884Z,13.80
2019-05-16T14:45:03.670Z,13.70
2019-05-16T14:47:20.408Z,13.50
2019-05-16T14:49:50.970Z,13.50
2019-05-16T14:52:21.239Z,13.40
2019-05-16T14:54:51.994Z,13.40
2019-05-16T14:57:22.287Z,13.30
2019-05-16T14:59:52.582Z,13.40
2019-05-16T15:02:22.882Z,13.50
2019-05-16T15:04:53.135Z,13.60
2019-05-16T15:07:23.445Z,13.50
2019-05-16T15:09:53.702Z,13.50
2019-05-16T15:12:26.646Z,13.50
2019-05-16T15:14:58.789Z,13.50
2019-05-16T15:17:27.984Z,13.50
2019-05-16T15:19:58.283Z,13.50
2019-05-16T15:22:28.557Z,13.50
2019-05-16T15:24:59.506Z,13.50
2019-05-16T15:27:29.902Z,13.50
2019-05-16T15:30:00.284Z,13.40
2019-05-16T15:32:31.857Z,13.50
2019-05-16T15:35:02.268Z,13.30
2019-05-16T15:37:32.524Z,13.30
2019-05-16T15:40:02.825Z,13.20
2019-05-16T15:42:33.088Z,13.00
2019-05-16T15:45:03.815Z,12.90
2019-05-16T15:47:37.164Z,12.90
2019-05-16T15:50:09.333Z,12.80
2019-05-16T15:52:39.675Z,12.70
2019-05-16T15:55:10.613Z,12.70
2019-05-16T15:57:40.882Z,12.60
2019-05-16T16:00:11.253Z,12.60
2019-05-16T16:02:41.518Z,12.50
2019-05-16T16:05:12.378Z,12.50
2019-05-16T16:07:42.816Z,12.60
2019-05-16T16:10:13.086Z,12.60
2019-05-16T16:12:43.356Z,12.50
2019-05-16T16:15:13.679Z,12.40
2019-05-16T16:17:43.947Z,12.30
2019-05-16T16:20:16.730Z,12.30
2019-05-16T16:22:46.882Z,12.30
2019-05-16T16:25:17.793Z,12.20
2019-05-16T16:27:48.250Z,12.20
2019-05-16T16:30:18.829Z,12.20
2019-05-16T16:32:49.795Z,12.10
2019-05-16T16:35:20.344Z,12.20
2019-05-16T16:37:50.651Z,12.10
2019-05-16T16:40:20.972Z,12.10
2019-05-16T16:42:51.505Z,12.10
2019-05-16T16:45:21.874Z,12.10
2019-05-16T16:47:52.176Z,12.10
2019-05-16T16:50:22.912Z,12.10
2019-05-16T16:52:53.211Z,12.10
2019-05-16T16:55:23.521Z,12.10
2019-05-16T16:57:55.880Z,12.10
2019-05-16T17:00:27.968Z,12.10
2019-05-16T17:03:05.669Z,12.10
2019-05-16T17:05:29.924Z,12.10
2019-05-16T17:08:00.224Z,12.10
2019-05-16T17:10:30.533Z,12.20
2019-05-16T17:13:00.832Z,12.10
2019-05-16T17:15:31.126Z,12.20
2019-05-16T17:18:01.416Z,12.10
2019-05-16T17:20:31.693Z,12.10
2019-05-16T17:23:01.955Z,12.10
2019-05-16T17:25:33.005Z,12.20
2019-05-16T17:28:03.269Z,12.20
2019-05-16T17:30:33.574Z,12.20
2019-05-16T17:33:03.834Z,12.20
2019-05-16T17:35:34.104Z,12.10
2019-05-16T17:38:06.745Z,12.20
2019-05-16T17:40:37.980Z,12.20
2019-05-16T17:43:08.567Z,12.30
2019-05-16T17:45:38.834Z,12.20
2019-05-16T17:48:09.131Z,12.20
2019-05-16T17:50:39.424Z,12.30
2019-05-16T17:53:09.673Z,12.30
2019-05-16T17:55:39.972Z,12.30
2019-05-16T17:58:10.235Z,12.20
2019-05-16T18:00:40.512Z,12.20
2019-05-16T18:03:11.119Z,12.10
2019-05-16T18:05:41.427Z,12.10
2019-05-16T18:08:11.691Z,12.00
2019-05-16T18:10:41.990Z,12.00
2019-05-16T18:13:12.303Z,11.90
2019-05-16T18:15:42.601Z,11.80
2019-05-16T18:18:12.859Z,11.80
2019-05-16T18:20:55.734Z,11.70
2019-05-16T18:23:16.455Z,11.80
2019-05-16T18:25:47.110Z,11.80
2019-05-16T18:28:17.705Z,11.80
2019-05-16T18:30:48.205Z,11.80
2019-05-16T18:33:18.499Z,11.80
2019-05-16T18:35:48.757Z,11.70
2019-05-16T18:38:19.030Z,11.70
2019-05-16T18:40:49.330Z,11.70
2019-05-16T18:43:21.310Z,11.70
2019-05-16T18:45:51.789Z,11.70
2019-05-16T18:48:22.098Z,11.70
2019-05-16T18:50:52.653Z,11.60
2019-05-16T18:53:22.921Z,11.70
2019-05-16T18:55:53.190Z,11.60
2019-05-16T18:58:23.462Z,11.50
2019-05-16T19:00:53.759Z,11.50
2019-05-16T19:03:24.059Z,11.40
2019-05-16T19:05:56.937Z,11.40
2019-05-16T19:08:27.021Z,11.40
2019-05-16T19:11:00.042Z,11.30
2019-05-16T19:13:29.471Z,11.30
2019-05-16T19:16:00.929Z,11.30
2019-05-16T19:18:31.205Z,11.30
2019-05-16T19:21:01.513Z,11.30
2019-05-16T19:23:31.815Z,11.30
2019-05-16T19:26:02.119Z,11.30
2019-05-16T19:28:32.412Z,11.30
2019-05-16T19:31:02.774Z,11.30
2019-05-16T19:33:33.078Z,11.30
2019-05-16T19:36:03.379Z,11.30
2019-05-16T19:38:33.665Z,11.40
2019-05-16T19:41:03.927Z,11.40
2019-05-16T19:43:34.196Z,11.40
2019-05-16T19:46:04.491Z,11.40
2019-05-16T19:48:36.908Z,11.40
2019-05-16T19:51:07.473Z,11.40
2019-05-16T19:53:38.064Z,11.40
2019-05-16T19:56:08.500Z,11.40
2019-05-16T19:58:39.060Z,11.40
2019-05-16T20:01:09.377Z,11.40
2019-05-16T20:03:39.641Z,11.40
2019-05-16T20:06:09.960Z,11.40
2019-05-16T20:08:40.223Z,11.40
2019-05-16T20:11:10.486Z,11.40
2019-05-16T20:13:40.824Z,11.40
2019-05-16T20:16:11.146Z,11.30
2019-05-16T20:18:41.706Z,11.40
2019-05-16T20:21:11.987Z,11.30
2019-05-16T20:23:42.540Z,11.30
2019-05-16T20:26:12.868Z,11.30
2019-05-16T20:28:43.143Z,11.40
2019-05-16T20:31:13.441Z,11.40
2019-05-16T20:33:43.699Z,11.40
2019-05-16T20:36:14.013Z,11.30
2019-05-16T20:38:46.476Z,11.30
2019-05-16T20:41:17.115Z,11.30
2019-05-16T20:43:47.824Z,11.30
2019-05-16T20:46:18.107Z,11.30
2019-05-16T20:48:48.389Z,11.30
2019-05-16T20:51:20.212Z,11.30
2019-05-16T20:53:50.697Z,11.30
2019-05-16T20:56:21.159Z,11.30
2019-05-16T20:58:51.446Z,11.20
2019-05-16T21:01:21.740Z,11.20
2019-05-16T21:03:52.257Z,11.30
2019-05-16T21:06:22.552Z,11.30
2019-05-16T21:08:52.889Z,11.30
2019-05-16T21:11:23.144Z,11.30
2019-05-16T21:13:53.446Z,11.30
2019-05-16T21:16:23.964Z,11.20
2019-05-16T21:18:54.221Z,11.10
2019-05-16T21:21:24.491Z,11.10
2019-05-16T21:23:56.488Z,11.10
2019-05-16T21:26:26.751Z,11.10
2019-05-16T21:28:57.089Z,11.10
2019-05-16T21:31:27.679Z,11.10
2019-05-16T21:33:58.059Z,11.10
2019-05-16T21:36:28.321Z,11.10
2019-05-16T21:38:58.614Z,11.00
2019-05-16T21:41:28.907Z,11.00
2019-05-16T21:43:59.205Z,11.00
2019-05-16T21:46:29.460Z,10.90
2019-05-16T21:48:59.727Z,10.70
2019-05-16T21:51:30.253Z,10.60
2019-05-16T21:54:00.618Z,10.40
2019-05-16T21:56:30.885Z,10.20
2019-05-16T21:59:01.481Z,10.00
2019-05-16T22:01:31.762Z,9.80
2019-05-16T22:04:02.009Z,9.60
2019-05-16T22:06:32.271Z,9.40
2019-05-16T22:09:02.564Z,9.30
2019-05-16T22:11:32.846Z,9.20
2019-05-16T22:14:03.157Z,9.10
2019-05-16T22:16:33.412Z,9.00
2019-05-16T22:19:04.460Z,9.00
2019-05-16T22:21:34.722Z,9.00
2019-05-16T22:24:06.634Z,9.00
2019-05-16T22:26:37.089Z,9.00
2019-05-16T22:29:07.411Z,9.00
2019-05-16T22:31:37.744Z,9.00
2019-05-16T22:34:08.028Z,9.00
2019-05-16T22:36:38.594Z,8.90
2019-05-16T22:39:09.143Z,8.80
2019-05-16T22:41:39.437Z,8.70
2019-05-16T22:44:10.050Z,8.50
2019-05-16T22:46:40.312Z,8.40
2019-05-16T22:49:10.608Z,8.20
2019-05-16T22:51:41.172Z,8.10
2019-05-16T22:54:11.453Z,8.00
2019-05-16T22:56:41.702Z,7.80
2019-05-16T22:59:11.961Z,7.80
2019-05-16T23:01:42.216Z,7.70
2019-05-16T23:04:12.484Z,7.60
2019-05-16T23:06:42.779Z,7.50
2019-05-16T23:09:16.297Z,7.50
2019-05-16T23:11:46.400Z,7.40
2019-05-16T23:14:17.158Z,7.40
2019-05-16T23:16:48.060Z,7.30
2019-05-16T23:19:18.340Z,7.20
2019-05-16T23:21:48.630Z,7.30
2019-05-16T23:24:18.911Z,7.30
2019-05-16T23:26:49.178Z,7.40
2019-05-16T23:29:19.431Z,7.50
2019-05-16T23:31:50.890Z,7.50
2019-05-16T23:34:22.200Z,7.60
2019-05-16T23:36:52.460Z,7.60
2019-05-16T23:39:22.718Z,7.50
2019-05-16T23:41:53.011Z,7.40
2019-05-16T23:44:23.293Z,7.30
2019-05-16T23:46:53.569Z,7.20
2019-05-16T23:49:23.828Z,7.10
2019-05-16T23:51:56.664Z,7.00
2019-05-16T23:54:27.829Z,6.90
2019-05-16T23:56:58.229Z,6.80
2019-05-16T23:59:28.509Z,6.70
